sensor_id;sensor_type;location;lat;lon;timestamp;P1;durP1;ratioP1;P2;durP2;ratioP2
33993;SDS011;20673;48.980;8.138;2022-10-26T00:00:48;10.10;;;4.07;;
33993;SDS011;20673;48.980;8.138;2022-10-26T00:03:15;9.70;;;4.23;;
33993;SDS011;20673;48.980;8.138;2022-10-26T00:05:42;8.70;;;4.20;;
33993;SDS011;20673;48.980;8.138;2022-10-26T00:08:08;7.53;;;4.20;;
33993;SDS011;20673;48.980;8.138;2022-10-26T00:10:38;13.83;;;4.25;;
33993;SDS011;20673;48.980;8.138;2022-10-26T00:13:05;6.33;;;3.60;;
33993;SDS011;20673;48.980;8.138;2022-10-26T00:15:38;7.87;;;3.37;;
33993;SDS011;20673;48.980;8.138;2022-10-26T00:18:07;13.13;;;4.80;;
33993;SDS011;20673;48.980;8.138;2022-10-26T00:20:34;8.28;;;3.85;;
33993;SDS011;20673;48.980;8.138;2022-10-26T00:23:01;6.60;;;3.70;;
33993;SDS011;20673;48.980;8.138;2022-10-26T00:25:27;10.73;;;4.07;;
33993;SDS011;20673;48.980;8.138;2022-10-26T00:27:53;7.53;;;3.87;;
33993;SDS011;20673;48.980;8.138;2022-10-26T00:30:19;13.00;;;4.53;;
33993;SDS011;20673;48.980;8.138;2022-10-26T00:32:45;6.40;;;3.50;;
33993;SDS011;20673;48.980;8.138;2022-10-26T00:35:12;6.93;;;4.07;;
33993;SDS011;20673;48.980;8.138;2022-10-26T00:37:38;9.78;;;4.10;;
33993;SDS011;20673;48.980;8.138;2022-10-26T00:40:04;10.15;;;4.03;;
33993;SDS011;20673;48.980;8.138;2022-10-26T00:42:32;6.03;;;4.35;;
33993;SDS011;20673;48.980;8.138;2022-10-26T00:44:59;8.77;;;3.47;;
33993;SDS011;20673;48.980;8.138;2022-10-26T00:47:49;10.28;;;4.15;;
33993;SDS011;20673;48.980;8.138;2022-10-26T00:50:30;6.03;;;3.70;;
33993;SDS011;20673;48.980;8.138;2022-10-26T00:53:09;9.63;;;3.43;;
33993;SDS011;20673;48.980;8.138;2022-10-26T00:55:38;8.97;;;4.03;;
33993;SDS011;20673;48.980;8.138;2022-10-26T00:58:09;9.40;;;3.12;;
33993;SDS011;20673;48.980;8.138;2022-10-26T01:00:36;5.77;;;3.43;;
33993;SDS011;20673;48.980;8.138;2022-10-26T01:03:05;6.73;;;3.50;;
33993;SDS011;20673;48.980;8.138;2022-10-26T01:05:34;5.70;;;3.40;;
33993;SDS011;20673;48.980;8.138;2022-10-26T01:08:05;6.80;;;3.77;;
33993;SDS011;20673;48.980;8.138;2022-10-26T01:10:33;4.40;;;3.60;;
33993;SDS011;20673;48.980;8.138;2022-10-26T01:13:03;10.43;;;3.70;;
33993;SDS011;20673;48.980;8.138;2022-10-26T01:15:47;8.67;;;3.90;;
33993;SDS011;20673;48.980;8.138;2022-10-26T01:18:28;8.23;;;3.85;;
33993;SDS011;20673;48.980;8.138;2022-10-26T01:24:17;8.98;;;3.45;;
33993;SDS011;20673;48.980;8.138;2022-10-26T01:32:18;10.65;;;4.30;;
33993;SDS011;20673;48.980;8.138;2022-10-26T01:34:59;8.80;;;4.23;;
33993;SDS011;20673;48.980;8.138;2022-10-26T01:37:44;9.53;;;4.03;;
33993;SDS011;20673;48.980;8.138;2022-10-26T01:40:19;4.25;;;3.77;;
33993;SDS011;20673;48.980;8.138;2022-10-26T01:45:16;12.15;;;4.42;;
33993;SDS011;20673;48.980;8.138;2022-10-26T01:47:43;8.50;;;4.28;;
33993;SDS011;20673;48.980;8.138;2022-10-26T01:50:12;12.07;;;3.92;;
33993;SDS011;20673;48.980;8.138;2022-10-26T01:52:39;15.80;;;3.92;;
33993;SDS011;20673;48.980;8.138;2022-10-26T01:55:34;7.47;;;4.13;;
33993;SDS011;20673;48.980;8.138;2022-10-26T02:12:20;12.17;;;4.33;;
33993;SDS011;20673;48.980;8.138;2022-10-26T02:15:48;11.67;;;5.03;;
33993;SDS011;20673;48.980;8.138;2022-10-26T02:17:58;6.62;;;3.92;;
33993;SDS011;20673;48.980;8.138;2022-10-26T02:20:37;9.13;;;4.23;;
33993;SDS011;20673;48.980;8.138;2022-10-26T02:23:13;11.05;;;4.15;;
33993;SDS011;20673;48.980;8.138;2022-10-26T02:25:43;8.23;;;3.83;;
33993;SDS011;20673;48.980;8.138;2022-10-26T02:28:21;7.10;;;3.67;;
33993;SDS011;20673;48.980;8.138;2022-10-26T02:30:47;10.55;;;4.45;;
33993;SDS011;20673;48.980;8.138;2022-10-26T02:33:18;11.03;;;4.50;;
33993;SDS011;20673;48.980;8.138;2022-10-26T02:35:47;8.83;;;4.83;;
33993;SDS011;20673;48.980;8.138;2022-10-26T02:38:17;9.18;;;3.92;;
33993;SDS011;20673;48.980;8.138;2022-10-26T02:40:48;9.07;;;4.53;;
33993;SDS011;20673;48.980;8.138;2022-10-26T02:43:17;7.35;;;3.75;;
33993;SDS011;20673;48.980;8.138;2022-10-26T02:45:48;12.03;;;4.40;;
33993;SDS011;20673;48.980;8.138;2022-10-26T02:48:24;8.45;;;4.78;;
33993;SDS011;20673;48.980;8.138;2022-10-26T02:53:39;6.27;;;3.70;;
33993;SDS011;20673;48.980;8.138;2022-10-26T02:56:15;10.45;;;4.17;;
33993;SDS011;20673;48.980;8.138;2022-10-26T02:58:45;15.00;;;4.72;;
33993;SDS011;20673;48.980;8.138;2022-10-26T03:01:16;7.60;;;3.72;;
33993;SDS011;20673;48.980;8.138;2022-10-26T03:03:43;4.37;;;3.30;;
33993;SDS011;20673;48.980;8.138;2022-10-26T03:06:09;4.80;;;3.92;;
33993;SDS011;20673;48.980;8.138;2022-10-26T03:08:36;8.90;;;3.55;;
33993;SDS011;20673;48.980;8.138;2022-10-26T03:11:02;10.50;;;4.40;;
33993;SDS011;20673;48.980;8.138;2022-10-26T03:13:28;5.77;;;3.53;;
33993;SDS011;20673;48.980;8.138;2022-10-26T03:15:55;7.05;;;3.75;;
33993;SDS011;20673;48.980;8.138;2022-10-26T03:18:22;10.80;;;4.15;;
33993;SDS011;20673;48.980;8.138;2022-10-26T03:20:48;10.40;;;4.87;;
33993;SDS011;20673;48.980;8.138;2022-10-26T03:23:14;10.67;;;5.10;;
33993;SDS011;20673;48.980;8.138;2022-10-26T03:25:40;6.30;;;4.15;;
33993;SDS011;20673;48.980;8.138;2022-10-26T03:28:07;7.55;;;3.72;;
33993;SDS011;20673;48.980;8.138;2022-10-26T03:30:34;7.47;;;3.87;;
33993;SDS011;20673;48.980;8.138;2022-10-26T03:33:00;10.95;;;4.42;;
33993;SDS011;20673;48.980;8.138;2022-10-26T03:35:26;9.83;;;5.10;;
33993;SDS011;20673;48.980;8.138;2022-10-26T03:37:52;10.05;;;4.30;;
33993;SDS011;20673;48.980;8.138;2022-10-26T03:40:19;14.33;;;5.25;;
33993;SDS011;20673;48.980;8.138;2022-10-26T03:42:45;7.30;;;4.72;;
33993;SDS011;20673;48.980;8.138;2022-10-26T03:45:11;9.20;;;6.60;;
33993;SDS011;20673;48.980;8.138;2022-10-26T03:47:41;9.50;;;6.00;;
33993;SDS011;20673;48.980;8.138;2022-10-26T03:50:11;6.25;;;4.33;;
33993;SDS011;20673;48.980;8.138;2022-10-26T03:52:40;8.13;;;5.03;;
33993;SDS011;20673;48.980;8.138;2022-10-26T03:55:07;14.50;;;5.95;;
33993;SDS011;20673;48.980;8.138;2022-10-26T03:57:38;10.15;;;5.87;;
33993;SDS011;20673;48.980;8.138;2022-10-26T04:00:10;9.10;;;5.33;;
33993;SDS011;20673;48.980;8.138;2022-10-26T04:02:54;8.23;;;5.83;;
33993;SDS011;20673;48.980;8.138;2022-10-26T04:05:12;9.70;;;5.08;;
33993;SDS011;20673;48.980;8.138;2022-10-26T04:07:41;10.70;;;6.00;;
33993;SDS011;20673;48.980;8.138;2022-10-26T04:10:08;10.35;;;5.33;;
33993;SDS011;20673;48.980;8.138;2022-10-26T04:12:35;14.25;;;4.70;;
33993;SDS011;20673;48.980;8.138;2022-10-26T04:15:03;9.70;;;5.55;;
33993;SDS011;20673;48.980;8.138;2022-10-26T04:17:31;6.37;;;4.37;;
33993;SDS011;20673;48.980;8.138;2022-10-26T04:19:58;10.32;;;5.62;;
33993;SDS011;20673;48.980;8.138;2022-10-26T04:22:24;7.83;;;4.78;;
33993;SDS011;20673;48.980;8.138;2022-10-26T04:24:50;7.90;;;5.33;;
33993;SDS011;20673;48.980;8.138;2022-10-26T04:27:16;11.33;;;6.75;;
33993;SDS011;20673;48.980;8.138;2022-10-26T04:29:42;10.03;;;6.12;;
33993;SDS011;20673;48.980;8.138;2022-10-26T04:32:08;11.22;;;6.50;;
33993;SDS011;20673;48.980;8.138;2022-10-26T04:34:35;10.48;;;6.12;;
33993;SDS011;20673;48.980;8.138;2022-10-26T04:37:01;9.53;;;5.45;;
33993;SDS011;20673;48.980;8.138;2022-10-26T04:39:27;11.65;;;6.25;;
33993;SDS011;20673;48.980;8.138;2022-10-26T04:41:53;13.98;;;5.80;;
33993;SDS011;20673;48.980;8.138;2022-10-26T04:44:19;8.25;;;5.03;;
33993;SDS011;20673;48.980;8.138;2022-10-26T04:46:45;11.05;;;5.35;;
33993;SDS011;20673;48.980;8.138;2022-10-26T04:49:12;10.50;;;5.62;;
33993;SDS011;20673;48.980;8.138;2022-10-26T04:51:39;11.12;;;6.00;;
33993;SDS011;20673;48.980;8.138;2022-10-26T04:54:05;10.15;;;6.08;;
33993;SDS011;20673;48.980;8.138;2022-10-26T04:56:31;10.98;;;5.45;;
33993;SDS011;20673;48.980;8.138;2022-10-26T04:58:58;10.35;;;5.40;;
33993;SDS011;20673;48.980;8.138;2022-10-26T05:01:24;6.78;;;5.12;;
33993;SDS011;20673;48.980;8.138;2022-10-26T05:03:51;8.60;;;5.35;;
33993;SDS011;20673;48.980;8.138;2022-10-26T05:06:19;11.38;;;5.62;;
33993;SDS011;20673;48.980;8.138;2022-10-26T05:08:46;6.65;;;4.70;;
33993;SDS011;20673;48.980;8.138;2022-10-26T05:11:13;14.35;;;5.45;;
33993;SDS011;20673;48.980;8.138;2022-10-26T05:13:39;10.45;;;4.83;;
33993;SDS011;20673;48.980;8.138;2022-10-26T05:16:06;12.68;;;6.30;;
33993;SDS011;20673;48.980;8.138;2022-10-26T05:18:33;10.50;;;5.12;;
33993;SDS011;20673;48.980;8.138;2022-10-26T05:20:59;13.58;;;5.92;;
33993;SDS011;20673;48.980;8.138;2022-10-26T05:23:25;9.70;;;5.22;;
33993;SDS011;20673;48.980;8.138;2022-10-26T05:25:51;10.82;;;5.53;;
33993;SDS011;20673;48.980;8.138;2022-10-26T05:28:20;9.18;;;5.60;;
33993;SDS011;20673;48.980;8.138;2022-10-26T05:30:46;11.78;;;5.42;;
33993;SDS011;20673;48.980;8.138;2022-10-26T05:33:13;11.18;;;4.97;;
33993;SDS011;20673;48.980;8.138;2022-10-26T05:35:39;13.25;;;6.45;;
33993;SDS011;20673;48.980;8.138;2022-10-26T05:38:11;8.88;;;6.10;;
33993;SDS011;20673;48.980;8.138;2022-10-26T05:40:37;9.15;;;6.10;;
33993;SDS011;20673;48.980;8.138;2022-10-26T05:43:03;9.13;;;5.25;;
33993;SDS011;20673;48.980;8.138;2022-10-26T05:45:30;11.78;;;6.28;;
33993;SDS011;20673;48.980;8.138;2022-10-26T05:47:56;9.07;;;5.87;;
33993;SDS011;20673;48.980;8.138;2022-10-26T05:50:22;9.85;;;5.85;;
33993;SDS011;20673;48.980;8.138;2022-10-26T05:52:48;10.10;;;5.97;;
33993;SDS011;20673;48.980;8.138;2022-10-26T05:55:16;8.53;;;5.22;;
33993;SDS011;20673;48.980;8.138;2022-10-26T05:57:43;8.65;;;5.95;;
33993;SDS011;20673;48.980;8.138;2022-10-26T06:06:02;10.70;;;6.65;;
33993;SDS011;20673;48.980;8.138;2022-10-26T06:08:29;7.95;;;5.30;;
33993;SDS011;20673;48.980;8.138;2022-10-26T06:10:56;7.00;;;5.17;;
33993;SDS011;20673;48.980;8.138;2022-10-26T06:13:24;10.85;;;5.12;;
33993;SDS011;20673;48.980;8.138;2022-10-26T06:18:47;7.70;;;4.90;;
33993;SDS011;20673;48.980;8.138;2022-10-26T06:30:17;9.68;;;5.65;;
33993;SDS011;20673;48.980;8.138;2022-10-26T06:32:46;9.90;;;6.28;;
33993;SDS011;20673;48.980;8.138;2022-10-26T06:35:33;7.42;;;5.90;;
33993;SDS011;20673;48.980;8.138;2022-10-26T06:38:10;7.20;;;5.35;;
33993;SDS011;20673;48.980;8.138;2022-10-26T06:40:42;12.63;;;6.12;;
33993;SDS011;20673;48.980;8.138;2022-10-26T06:43:16;7.25;;;5.17;;
33993;SDS011;20673;48.980;8.138;2022-10-26T06:51:45;12.05;;;7.65;;
33993;SDS011;20673;48.980;8.138;2022-10-26T06:57:16;13.22;;;7.22;;
33993;SDS011;20673;48.980;8.138;2022-10-26T06:59:49;7.53;;;6.42;;
33993;SDS011;20673;48.980;8.138;2022-10-26T07:02:22;9.83;;;7.17;;
33993;SDS011;20673;48.980;8.138;2022-10-26T07:04:48;10.20;;;5.87;;
33993;SDS011;20673;48.980;8.138;2022-10-26T07:07:20;8.68;;;6.65;;
33993;SDS011;20673;48.980;8.138;2022-10-26T07:09:46;9.48;;;6.30;;
33993;SDS011;20673;48.980;8.138;2022-10-26T07:12:12;11.97;;;7.53;;
33993;SDS011;20673;48.980;8.138;2022-10-26T07:14:39;12.70;;;6.97;;
33993;SDS011;20673;48.980;8.138;2022-10-26T07:17:05;9.53;;;6.63;;
33993;SDS011;20673;48.980;8.138;2022-10-26T07:19:32;8.63;;;6.90;;
33993;SDS011;20673;48.980;8.138;2022-10-26T07:21:59;9.13;;;6.27;;
33993;SDS011;20673;48.980;8.138;2022-10-26T07:24:28;8.38;;;6.50;;
33993;SDS011;20673;48.980;8.138;2022-10-26T07:26:56;9.13;;;5.77;;
33993;SDS011;20673;48.980;8.138;2022-10-26T07:29:23;9.05;;;6.53;;
33993;SDS011;20673;48.980;8.138;2022-10-26T07:31:51;9.40;;;5.80;;
33993;SDS011;20673;48.980;8.138;2022-10-26T07:34:18;13.63;;;7.27;;
33993;SDS011;20673;48.980;8.138;2022-10-26T07:36:44;7.40;;;5.80;;
33993;SDS011;20673;48.980;8.138;2022-10-26T07:39:10;7.53;;;6.23;;
33993;SDS011;20673;48.980;8.138;2022-10-26T07:41:36;10.13;;;6.50;;
33993;SDS011;20673;48.980;8.138;2022-10-26T07:44:03;10.07;;;6.43;;
33993;SDS011;20673;48.980;8.138;2022-10-26T07:46:29;6.57;;;5.13;;
33993;SDS011;20673;48.980;8.138;2022-10-26T07:48:55;6.80;;;4.30;;
33993;SDS011;20673;48.980;8.138;2022-10-26T07:51:21;11.67;;;5.80;;
33993;SDS011;20673;48.980;8.138;2022-10-26T07:53:47;9.50;;;7.67;;
33993;SDS011;20673;48.980;8.138;2022-10-26T07:56:14;10.90;;;6.87;;
33993;SDS011;20673;48.980;8.138;2022-10-26T07:58:40;9.43;;;5.67;;
33993;SDS011;20673;48.980;8.138;2022-10-26T08:01:12;10.67;;;5.60;;
33993;SDS011;20673;48.980;8.138;2022-10-26T08:03:38;8.58;;;5.55;;
33993;SDS011;20673;48.980;8.138;2022-10-26T08:06:05;6.80;;;4.33;;
33993;SDS011;20673;48.980;8.138;2022-10-26T08:08:32;6.60;;;4.73;;
33993;SDS011;20673;48.980;8.138;2022-10-26T08:10:58;10.20;;;4.37;;
33993;SDS011;20673;48.980;8.138;2022-10-26T08:13:25;7.90;;;4.63;;
33993;SDS011;20673;48.980;8.138;2022-10-26T08:15:55;11.43;;;5.00;;
33993;SDS011;20673;48.980;8.138;2022-10-26T08:18:23;7.93;;;4.47;;
33993;SDS011;20673;48.980;8.138;2022-10-26T08:20:51;7.03;;;4.00;;
33993;SDS011;20673;48.980;8.138;2022-10-26T08:23:17;7.47;;;3.87;;
33993;SDS011;20673;48.980;8.138;2022-10-26T08:25:44;7.23;;;4.00;;
33993;SDS011;20673;48.980;8.138;2022-10-26T08:28:10;11.13;;;3.80;;
33993;SDS011;20673;48.980;8.138;2022-10-26T08:30:37;6.20;;;3.90;;
33993;SDS011;20673;48.980;8.138;2022-10-26T08:33:04;7.17;;;3.87;;
33993;SDS011;20673;48.980;8.138;2022-10-26T08:35:34;9.00;;;3.80;;
33993;SDS011;20673;48.980;8.138;2022-10-26T08:38:00;15.20;;;4.33;;
33993;SDS011;20673;48.980;8.138;2022-10-26T08:40:29;7.67;;;3.70;;
33993;SDS011;20673;48.980;8.138;2022-10-26T08:43:04;12.47;;;4.63;;
33993;SDS011;20673;48.980;8.138;2022-10-26T08:45:51;8.05;;;4.15;;
33993;SDS011;20673;48.980;8.138;2022-10-26T08:48:42;7.73;;;4.20;;
33993;SDS011;20673;48.980;8.138;2022-10-26T08:51:16;7.33;;;3.80;;
33993;SDS011;20673;48.980;8.138;2022-10-26T08:54:15;9.07;;;4.30;;
33993;SDS011;20673;48.980;8.138;2022-10-26T08:56:58;10.43;;;4.13;;
33993;SDS011;20673;48.980;8.138;2022-10-26T08:59:29;6.30;;;4.05;;
33993;SDS011;20673;48.980;8.138;2022-10-26T09:02:13;6.90;;;3.65;;
33993;SDS011;20673;48.980;8.138;2022-10-26T09:04:41;5.40;;;3.27;;
33993;SDS011;20673;48.980;8.138;2022-10-26T09:07:18;7.30;;;3.12;;
33993;SDS011;20673;48.980;8.138;2022-10-26T09:10:08;7.22;;;3.02;;
33993;SDS011;20673;48.980;8.138;2022-10-26T09:12:53;4.87;;;2.70;;
33993;SDS011;20673;48.980;8.138;2022-10-26T09:23:45;6.78;;;2.50;;
33993;SDS011;20673;48.980;8.138;2022-10-26T09:26:28;6.70;;;3.07;;
33993;SDS011;20673;48.980;8.138;2022-10-26T09:29:00;6.70;;;2.65;;
33993;SDS011;20673;48.980;8.138;2022-10-26T09:31:29;6.45;;;2.80;;
33993;SDS011;20673;48.980;8.138;2022-10-26T09:34:01;8.05;;;2.33;;
33993;SDS011;20673;48.980;8.138;2022-10-26T09:36:31;5.70;;;2.73;;
33993;SDS011;20673;48.980;8.138;2022-10-26T09:39:16;5.97;;;3.07;;
33993;SDS011;20673;48.980;8.138;2022-10-26T09:41:50;7.17;;;2.70;;
33993;SDS011;20673;48.980;8.138;2022-10-26T09:44:30;7.43;;;2.63;;
33993;SDS011;20673;48.980;8.138;2022-10-26T09:47:04;8.67;;;2.90;;
33993;SDS011;20673;48.980;8.138;2022-10-26T09:49:48;4.20;;;2.58;;
33993;SDS011;20673;48.980;8.138;2022-10-26T09:52:21;9.10;;;3.00;;
33993;SDS011;20673;48.980;8.138;2022-10-26T09:54:47;5.22;;;3.02;;
33993;SDS011;20673;48.980;8.138;2022-10-26T09:57:14;6.33;;;2.77;;
33993;SDS011;20673;48.980;8.138;2022-10-26T09:59:44;6.03;;;2.37;;
33993;SDS011;20673;48.980;8.138;2022-10-26T10:13:29;7.43;;;2.57;;
33993;SDS011;20673;48.980;8.138;2022-10-26T10:16:05;5.30;;;2.30;;
33993;SDS011;20673;48.980;8.138;2022-10-26T10:18:51;6.12;;;2.80;;
33993;SDS011;20673;48.980;8.138;2022-10-26T10:21:34;7.53;;;2.67;;
33993;SDS011;20673;48.980;8.138;2022-10-26T10:26:56;9.87;;;3.07;;
33993;SDS011;20673;48.980;8.138;2022-10-26T10:29:29;7.47;;;2.60;;
33993;SDS011;20673;48.980;8.138;2022-10-26T10:32:15;14.53;;;4.37;;
33993;SDS011;20673;48.980;8.138;2022-10-26T10:34:52;4.73;;;2.80;;
33993;SDS011;20673;48.980;8.138;2022-10-26T10:37:30;6.62;;;2.30;;
33993;SDS011;20673;48.980;8.138;2022-10-26T10:40:06;8.10;;;2.70;;
33993;SDS011;20673;48.980;8.138;2022-10-26T10:42:40;7.20;;;2.40;;
33993;SDS011;20673;48.980;8.138;2022-10-26T10:45:25;7.75;;;2.55;;
33993;SDS011;20673;48.980;8.138;2022-10-26T10:50:55;4.95;;;2.08;;
33993;SDS011;20673;48.980;8.138;2022-10-26T10:53:34;6.62;;;2.58;;
33993;SDS011;20673;48.980;8.138;2022-10-26T10:56:33;4.97;;;2.12;;
33993;SDS011;20673;48.980;8.138;2022-10-26T11:08:07;5.87;;;2.40;;
33993;SDS011;20673;48.980;8.138;2022-10-26T11:10:50;8.15;;;2.40;;
33993;SDS011;20673;48.980;8.138;2022-10-26T11:13:22;7.97;;;2.60;;
33993;SDS011;20673;48.980;8.138;2022-10-26T11:16:00;9.48;;;3.12;;
33993;SDS011;20673;48.980;8.138;2022-10-26T11:18:37;7.05;;;2.67;;
33993;SDS011;20673;48.980;8.138;2022-10-26T11:21:18;7.15;;;2.22;;
33993;SDS011;20673;48.980;8.138;2022-10-26T11:29:36;7.83;;;2.27;;
33993;SDS011;20673;48.980;8.138;2022-10-26T11:32:05;4.95;;;1.98;;
33993;SDS011;20673;48.980;8.138;2022-10-26T11:34:46;5.27;;;2.07;;
33993;SDS011;20673;48.980;8.138;2022-10-26T11:37:58;7.67;;;1.95;;
33993;SDS011;20673;48.980;8.138;2022-10-26T11:40:50;8.25;;;2.00;;
33993;SDS011;20673;48.980;8.138;2022-10-26T11:43:29;6.37;;;2.83;;
33993;SDS011;20673;48.980;8.138;2022-10-26T11:46:03;9.23;;;2.27;;
33993;SDS011;20673;48.980;8.138;2022-10-26T11:48:42;14.90;;;3.37;;
33993;SDS011;20673;48.980;8.138;2022-10-26T11:51:20;9.85;;;2.45;;
33993;SDS011;20673;48.980;8.138;2022-10-26T11:54:07;6.83;;;2.20;;
33993;SDS011;20673;48.980;8.138;2022-10-26T11:56:45;3.90;;;2.00;;
33993;SDS011;20673;48.980;8.138;2022-10-26T11:59:19;8.08;;;2.40;;
33993;SDS011;20673;48.980;8.138;2022-10-26T12:01:50;4.03;;;2.05;;
33993;SDS011;20673;48.980;8.138;2022-10-26T12:04:24;6.22;;;2.27;;
33993;SDS011;20673;48.980;8.138;2022-10-26T12:06:54;8.10;;;2.12;;
33993;SDS011;20673;48.980;8.138;2022-10-26T12:09:26;5.22;;;2.35;;
33993;SDS011;20673;48.980;8.138;2022-10-26T12:14:38;13.18;;;2.37;;
33993;SDS011;20673;48.980;8.138;2022-10-26T12:19:46;6.40;;;2.45;;
33993;SDS011;20673;48.980;8.138;2022-10-26T12:22:28;5.75;;;2.20;;
33993;SDS011;20673;48.980;8.138;2022-10-26T12:25:06;6.97;;;2.15;;
33993;SDS011;20673;48.980;8.138;2022-10-26T12:30:14;6.67;;;2.22;;
33993;SDS011;20673;48.980;8.138;2022-10-26T12:32:53;6.90;;;2.45;;
33993;SDS011;20673;48.980;8.138;2022-10-26T12:35:38;6.40;;;2.35;;
33993;SDS011;20673;48.980;8.138;2022-10-26T12:38:55;6.83;;;2.17;;
33993;SDS011;20673;48.980;8.138;2022-10-26T12:43:36;5.10;;;2.33;;
33993;SDS011;20673;48.980;8.138;2022-10-26T12:51:17;5.53;;;1.95;;
33993;SDS011;20673;48.980;8.138;2022-10-26T12:56:33;5.65;;;2.08;;
33993;SDS011;20673;48.980;8.138;2022-10-26T13:08:00;5.17;;;2.05;;
33993;SDS011;20673;48.980;8.138;2022-10-26T13:10:31;3.50;;;2.00;;
33993;SDS011;20673;48.980;8.138;2022-10-26T13:12:59;7.67;;;2.10;;
33993;SDS011;20673;48.980;8.138;2022-10-26T13:15:39;5.87;;;2.20;;
33993;SDS011;20673;48.980;8.138;2022-10-26T13:18:18;5.15;;;1.75;;
33993;SDS011;20673;48.980;8.138;2022-10-26T13:21:03;3.37;;;1.57;;
33993;SDS011;20673;48.980;8.138;2022-10-26T13:23:37;7.17;;;1.90;;
33993;SDS011;20673;48.980;8.138;2022-10-26T13:26:08;4.45;;;1.85;;
33993;SDS011;20673;48.980;8.138;2022-10-26T13:28:45;5.55;;;1.47;;
33993;SDS011;20673;48.980;8.138;2022-10-26T13:34:16;6.42;;;2.17;;
33993;SDS011;20673;48.980;8.138;2022-10-26T13:39:36;6.28;;;1.95;;
33993;SDS011;20673;48.980;8.138;2022-10-26T13:42:06;8.18;;;2.12;;
33993;SDS011;20673;48.980;8.138;2022-10-26T13:47:41;5.78;;;2.00;;
33993;SDS011;20673;48.980;8.138;2022-10-26T13:50:36;4.87;;;1.77;;
33993;SDS011;20673;48.980;8.138;2022-10-26T13:53:15;6.92;;;2.27;;
33993;SDS011;20673;48.980;8.138;2022-10-26T13:55:50;9.30;;;1.90;;
33993;SDS011;20673;48.980;8.138;2022-10-26T13:58:38;6.87;;;2.20;;
33993;SDS011;20673;48.980;8.138;2022-10-26T14:03:42;6.83;;;2.47;;
33993;SDS011;20673;48.980;8.138;2022-10-26T14:06:18;5.97;;;1.80;;
33993;SDS011;20673;48.980;8.138;2022-10-26T14:08:45;6.85;;;2.30;;
33993;SDS011;20673;48.980;8.138;2022-10-26T14:11:16;5.22;;;2.02;;
33993;SDS011;20673;48.980;8.138;2022-10-26T14:13:46;6.25;;;2.12;;
33993;SDS011;20673;48.980;8.138;2022-10-26T14:16:16;6.58;;;2.17;;
33993;SDS011;20673;48.980;8.138;2022-10-26T14:18:45;6.30;;;2.25;;
33993;SDS011;20673;48.980;8.138;2022-10-26T14:21:17;7.17;;;2.35;;
33993;SDS011;20673;48.980;8.138;2022-10-26T14:23:48;6.10;;;2.22;;
33993;SDS011;20673;48.980;8.138;2022-10-26T14:26:36;6.85;;;2.30;;
33993;SDS011;20673;48.980;8.138;2022-10-26T14:29:13;4.97;;;2.10;;
33993;SDS011;20673;48.980;8.138;2022-10-26T14:31:47;5.03;;;2.08;;
33993;SDS011;20673;48.980;8.138;2022-10-26T14:34:14;5.40;;;1.82;;
33993;SDS011;20673;48.980;8.138;2022-10-26T14:39:19;6.08;;;2.45;;
33993;SDS011;20673;48.980;8.138;2022-10-26T14:41:58;6.95;;;1.90;;
33993;SDS011;20673;48.980;8.138;2022-10-26T14:44:29;5.10;;;1.80;;
33993;SDS011;20673;48.980;8.138;2022-10-26T14:46:56;5.42;;;2.05;;
33993;SDS011;20673;48.980;8.138;2022-10-26T14:49:23;9.28;;;2.47;;
33993;SDS011;20673;48.980;8.138;2022-10-26T14:51:56;4.40;;;1.72;;
33993;SDS011;20673;48.980;8.138;2022-10-26T14:54:25;8.13;;;2.20;;
33993;SDS011;20673;48.980;8.138;2022-10-26T14:56:53;8.38;;;2.80;;
33993;SDS011;20673;48.980;8.138;2022-10-26T14:59:22;10.25;;;2.70;;
33993;SDS011;20673;48.980;8.138;2022-10-26T15:05:00;7.12;;;2.47;;
33993;SDS011;20673;48.980;8.138;2022-10-26T15:07:33;5.00;;;1.92;;
33993;SDS011;20673;48.980;8.138;2022-10-26T15:10:02;5.10;;;2.05;;
33993;SDS011;20673;48.980;8.138;2022-10-26T15:12:34;7.42;;;2.52;;
33993;SDS011;20673;48.980;8.138;2022-10-26T15:17:51;7.03;;;2.10;;
33993;SDS011;20673;48.980;8.138;2022-10-26T15:20:21;8.75;;;2.05;;
33993;SDS011;20673;48.980;8.138;2022-10-26T15:22:57;7.78;;;2.90;;
33993;SDS011;20673;48.980;8.138;2022-10-26T15:25:24;9.40;;;2.17;;
33993;SDS011;20673;48.980;8.138;2022-10-26T15:27:54;8.13;;;2.52;;
33993;SDS011;20673;48.980;8.138;2022-10-26T15:30:38;7.28;;;2.27;;
33993;SDS011;20673;48.980;8.138;2022-10-26T15:33:18;8.20;;;1.92;;
33993;SDS011;20673;48.980;8.138;2022-10-26T15:35:48;5.75;;;2.08;;
33993;SDS011;20673;48.980;8.138;2022-10-26T15:38:14;4.60;;;1.87;;
33993;SDS011;20673;48.980;8.138;2022-10-26T15:40:41;5.80;;;1.90;;
33993;SDS011;20673;48.980;8.138;2022-10-26T15:43:09;8.63;;;2.20;;
33993;SDS011;20673;48.980;8.138;2022-10-26T15:45:43;6.33;;;2.20;;
33993;SDS011;20673;48.980;8.138;2022-10-26T15:48:22;5.22;;;2.27;;
33993;SDS011;20673;48.980;8.138;2022-10-26T15:50:55;6.60;;;2.20;;
33993;SDS011;20673;48.980;8.138;2022-10-26T15:53:22;6.28;;;2.22;;
33993;SDS011;20673;48.980;8.138;2022-10-26T15:55:54;5.47;;;1.72;;
33993;SDS011;20673;48.980;8.138;2022-10-26T15:58:24;8.37;;;2.50;;
33993;SDS011;20673;48.980;8.138;2022-10-26T16:00:52;12.60;;;2.73;;
33993;SDS011;20673;48.980;8.138;2022-10-26T16:03:20;5.87;;;2.60;;
33993;SDS011;20673;48.980;8.138;2022-10-26T16:05:50;9.35;;;2.70;;
33993;SDS011;20673;48.980;8.138;2022-10-26T16:08:28;6.50;;;2.73;;
33993;SDS011;20673;48.980;8.138;2022-10-26T16:10:56;6.40;;;2.77;;
33993;SDS011;20673;48.980;8.138;2022-10-26T16:13:24;7.67;;;2.70;;
33993;SDS011;20673;48.980;8.138;2022-10-26T16:15:51;6.90;;;2.17;;
33993;SDS011;20673;48.980;8.138;2022-10-26T16:18:17;9.40;;;2.83;;
33993;SDS011;20673;48.980;8.138;2022-10-26T16:20:46;6.47;;;2.10;;
33993;SDS011;20673;48.980;8.138;2022-10-26T16:23:13;7.83;;;2.63;;
33993;SDS011;20673;48.980;8.138;2022-10-26T16:25:41;6.95;;;2.52;;
33993;SDS011;20673;48.980;8.138;2022-10-26T16:28:10;10.67;;;3.17;;
33993;SDS011;20673;48.980;8.138;2022-10-26T16:30:39;9.37;;;3.00;;
33993;SDS011;20673;48.980;8.138;2022-10-26T16:33:06;11.73;;;3.00;;
33993;SDS011;20673;48.980;8.138;2022-10-26T16:35:32;12.37;;;2.70;;
33993;SDS011;20673;48.980;8.138;2022-10-26T16:37:58;9.17;;;2.80;;
33993;SDS011;20673;48.980;8.138;2022-10-26T16:40:25;5.43;;;2.40;;
33993;SDS011;20673;48.980;8.138;2022-10-26T16:42:51;9.80;;;2.83;;
33993;SDS011;20673;48.980;8.138;2022-10-26T16:45:17;5.37;;;2.50;;
33993;SDS011;20673;48.980;8.138;2022-10-26T16:47:43;5.23;;;2.60;;
33993;SDS011;20673;48.980;8.138;2022-10-26T16:50:11;5.97;;;2.65;;
33993;SDS011;20673;48.980;8.138;2022-10-26T16:52:39;5.30;;;2.50;;
33993;SDS011;20673;48.980;8.138;2022-10-26T16:55:06;6.43;;;3.13;;
33993;SDS011;20673;48.980;8.138;2022-10-26T16:57:34;11.53;;;3.87;;
33993;SDS011;20673;48.980;8.138;2022-10-26T17:00:01;7.03;;;3.17;;
33993;SDS011;20673;48.980;8.138;2022-10-26T17:02:30;8.80;;;3.47;;
33993;SDS011;20673;48.980;8.138;2022-10-26T17:04:56;3.87;;;2.65;;
33993;SDS011;20673;48.980;8.138;2022-10-26T17:07:22;4.20;;;2.37;;
33993;SDS011;20673;48.980;8.138;2022-10-26T17:09:48;6.50;;;3.05;;
33993;SDS011;20673;48.980;8.138;2022-10-26T17:12:15;6.70;;;3.05;;
33993;SDS011;20673;48.980;8.138;2022-10-26T17:14:41;9.23;;;4.30;;
33993;SDS011;20673;48.980;8.138;2022-10-26T17:17:07;8.08;;;4.22;;
33993;SDS011;20673;48.980;8.138;2022-10-26T17:19:33;4.17;;;3.22;;
33993;SDS011;20673;48.980;8.138;2022-10-26T17:22:00;9.78;;;4.35;;
33993;SDS011;20673;48.980;8.138;2022-10-26T17:24:26;6.87;;;3.90;;
33993;SDS011;20673;48.980;8.138;2022-10-26T17:26:52;9.83;;;4.35;;
33993;SDS011;20673;48.980;8.138;2022-10-26T17:29:18;10.78;;;3.50;;
33993;SDS011;20673;48.980;8.138;2022-10-26T17:31:44;6.65;;;3.10;;